Time;durP1;ratioP1;P1;durP2;ratioP2;P2;SDS_P1;SDS_P2;PMS_P1;PMS_P2;Temp;Humidity;BMP_temperature;BMP_pressure;BME280_temperature;BME280_humidity;BME280_pressure;Samples;Min_cycle;Max_cycle;Signal;HPM_P1;HPM_P2
2022/10/02 00:01:58;;;;;;;3.28;1.08;;;;;;;;;;5084350;28;20214;-84
2022/10/02 00:04:29;;;;;;;3.38;1.30;;;;;;;;;;5082081;28;20203;-84
2022/10/02 00:06:59;;;;;;;2.88;1.08;;;;;;;;;;5091014;28;20258;-84
2022/10/02 00:09:29;;;;;;;3.57;1.20;;;;;;;;;;5083476;28;20202;-84
2022/10/02 00:11:58;;;;;;;4.40;1.30;;;;;;;;;;5090160;28;20596;-84
2022/10/02 00:14:27;;;;;;;2.40;1.10;;;;;;;;;;5091254;28;20202;-84
2022/10/02 00:16:56;;;;;;;3.20;1.20;;;;;;;;;;5091181;28;20282;-84
2022/10/02 00:19:23;;;;;;;4.10;1.15;;;;;;;;;;5058307;28;20256;-84
2022/10/02 00:22:12;;;;;;;3.53;1.43;;;;;;;;;;5080944;28;20234;-85
2022/10/02 00:24:41;;;;;;;10.43;1.70;;;;;;;;;;5075208;28;20294;-84
2022/10/02 00:27:14;;;;;;;8.15;1.55;;;;;;;;;;5078427;28;20195;-84
2022/10/02 00:29:48;;;;;;;13.70;2.00;;;;;;;;;;5087077;28;20199;-84
2022/10/02 00:32:19;;;;;;;6.83;1.50;;;;;;;;;;5087499;28;20313;-84
2022/10/02 00:34:53;;;;;;;5.60;1.70;;;;;;;;;;5086681;28;20616;-84
2022/10/02 00:37:26;;;;;;;6.80;1.77;;;;;;;;;;5067332;28;20234;-84
2022/10/02 00:39:56;;;;;;;6.53;1.65;;;;;;;;;;5076325;28;20230;-84
2022/10/02 00:42:38;;;;;;;6.70;1.37;;;;;;;;;;5088230;28;20203;-84
2022/10/02 00:45:20;;;;;;;8.63;1.60;;;;;;;;;;5077019;28;20867;-84
2022/10/02 00:47:52;;;;;;;6.18;1.73;;;;;;;;;;5072748;28;20701;-84
2022/10/02 00:50:25;;;;;;;9.47;2.03;;;;;;;;;;5072435;28;20666;-84
2022/10/02 00:53:03;;;;;;;10.57;1.90;;;;;;;;;;5071448;28;20229;-84
2022/10/02 00:55:38;;;;;;;7.80;2.00;;;;;;;;;;5069382;28;20273;-84
2022/10/02 00:58:11;;;;;;;7.07;2.07;;;;;;;;;;5073761;28;20223;-84
2022/10/02 01:00:39;;;;;;;8.75;2.10;;;;;;;;;;5082547;28;20289;-84
2022/10/02 01:03:12;;;;;;;7.53;2.00;;;;;;;;;;5076895;28;20674;-84
2022/10/02 01:05:39;;;;;;;10.07;1.98;;;;;;;;;;5081219;28;20237;-84
2022/10/02 01:08:08;;;;;;;10.05;2.20;;;;;;;;;;5072775;28;20257;-84
2022/10/02 01:10:36;;;;;;;9.85;1.90;;;;;;;;;;5089958;28;20753;-84
2022/10/02 01:13:03;;;;;;;6.78;1.92;;;;;;;;;;5065498;28;20719;-84
2022/10/02 01:15:32;;;;;;;7.72;2.00;;;;;;;;;;5076508;28;20207;-85
2022/10/02 01:18:00;;;;;;;5.60;1.95;;;;;;;;;;5087733;28;20280;-84
2022/10/02 01:20:32;;;;;;;9.43;2.45;;;;;;;;;;5072732;28;20195;-84
2022/10/02 01:23:02;;;;;;;9.93;2.20;;;;;;;;;;5075124;28;20299;-84
2022/10/02 01:25:31;;;;;;;7.65;2.10;;;;;;;;;;5076660;28;20296;-84
2022/10/02 01:27:58;;;;;;;9.35;2.20;;;;;;;;;;5075896;28;20686;-83
2022/10/02 01:30:25;;;;;;;9.73;2.50;;;;;;;;;;5083869;28;20277;-83
2022/10/02 01:32:53;;;;;;;6.47;1.85;;;;;;;;;;5083343;28;20300;-83
2022/10/02 01:35:21;;;;;;;11.48;2.50;;;;;;;;;;5062847;28;20291;-83
2022/10/02 01:37:50;;;;;;;9.73;2.35;;;;;;;;;;5082926;28;20286;-82
2022/10/02 01:40:23;;;;;;;10.00;2.40;;;;;;;;;;5071171;28;20282;-83
2022/10/02 01:42:52;;;;;;;11.00;2.15;;;;;;;;;;5072039;28;20231;-83
2022/10/02 01:45:24;;;;;;;8.80;2.10;;;;;;;;;;5083228;28;20639;-84
2022/10/02 01:47:54;;;;;;;8.48;2.15;;;;;;;;;;5074100;28;20242;-83
2022/10/02 01:50:28;;;;;;;8.20;2.20;;;;;;;;;;5089287;28;20237;-83
2022/10/02 01:52:58;;;;;;;10.43;2.13;;;;;;;;;;5077579;28;20303;-83
2022/10/02 01:55:34;;;;;;;9.10;2.10;;;;;;;;;;5068834;28;20282;-83
2022/10/02 01:58:12;;;;;;;10.27;2.00;;;;;;;;;;5070520;28;20738;-83
2022/10/02 02:00:47;;;;;;;9.43;2.20;;;;;;;;;;5067533;28;20640;-83
2022/10/02 02:03:18;;;;;;;7.53;2.25;;;;;;;;;;5081111;28;20198;-83
2022/10/02 02:05:48;;;;;;;7.60;2.20;;;;;;;;;;5084868;28;20830;-83
2022/10/02 02:08:19;;;;;;;11.32;2.40;;;;;;;;;;5077976;28;20306;-83
2022/10/02 02:10:49;;;;;;;11.30;2.40;;;;;;;;;;5084138;28;20262;-83
2022/10/02 02:13:23;;;;;;;12.17;2.20;;;;;;;;;;5090730;28;20305;-83
2022/10/02 02:15:55;;;;;;;10.07;2.50;;;;;;;;;;5071163;28;20233;-83
2022/10/02 02:18:26;;;;;;;10.33;2.70;;;;;;;;;;5083456;28;20618;-83
2022/10/02 02:20:54;;;;;;;11.20;2.83;;;;;;;;;;5085162;28;20230;-83
2022/10/02 02:23:25;;;;;;;10.93;2.40;;;;;;;;;;5091758;28;20756;-83
2022/10/02 02:25:55;;;;;;;9.77;2.53;;;;;;;;;;5076501;28;20191;-84
2022/10/02 02:28:25;;;;;;;12.93;2.80;;;;;;;;;;5079120;28;20227;-84
2022/10/02 02:30:53;;;;;;;14.65;2.50;;;;;;;;;;5076610;28;20286;-84
2022/10/02 02:33:22;;;;;;;13.83;2.80;;;;;;;;;;5078528;28;20261;-83
2022/10/02 02:35:51;;;;;;;9.30;2.87;;;;;;;;;;5076880;28;20203;-84
2022/10/02 02:38:23;;;;;;;13.57;2.60;;;;;;;;;;5081948;28;20675;-84
2022/10/02 02:40:52;;;;;;;12.70;2.97;;;;;;;;;;5073109;28;20629;-84
2022/10/02 02:43:22;;;;;;;15.97;3.53;;;;;;;;;;5080876;28;20227;-84
2022/10/02 02:45:54;;;;;;;12.87;2.93;;;;;;;;;;5085976;28;20592;-84
2022/10/02 02:48:23;;;;;;;14.40;2.90;;;;;;;;;;5086098;28;20226;-84
2022/10/02 02:50:52;;;;;;;12.90;3.13;;;;;;;;;;5080887;28;20744;-84
2022/10/02 02:53:21;;;;;;;13.60;3.10;;;;;;;;;;5090876;28;20302;-84
2022/10/02 02:55:49;;;;;;;18.77;3.80;;;;;;;;;;5079595;28;20231;-84
2022/10/02 02:58:19;;;;;;;15.27;3.10;;;;;;;;;;5075559;28;20290;-84
2022/10/02 03:00:46;;;;;;;15.23;2.80;;;;;;;;;;5078523;28;21005;-83
2022/10/02 03:03:15;;;;;;;18.33;3.67;;;;;;;;;;5083957;28;20242;-84
2022/10/02 03:05:45;;;;;;;21.40;4.00;;;;;;;;;;5092132;28;20238;-84
2022/10/02 03:08:19;;;;;;;20.43;3.60;;;;;;;;;;5094311;28;20234;-84
2022/10/02 03:10:53;;;;;;;16.97;3.80;;;;;;;;;;5094832;28;20269;-84
2022/10/02 03:13:33;;;;;;;19.37;3.77;;;;;;;;;;5084302;28;20263;-84
2022/10/02 03:16:07;;;;;;;19.27;3.90;;;;;;;;;;5090136;28;20289;-84
2022/10/02 03:18:46;;;;;;;19.27;3.47;;;;;;;;;;5074944;28;20198;-84
2022/10/02 03:21:15;;;;;;;17.83;3.90;;;;;;;;;;5072631;28;20286;-84
2022/10/02 03:23:50;;;;;;;17.17;3.80;;;;;;;;;;5092893;28;20226;-84
2022/10/02 03:26:19;;;;;;;19.83;3.90;;;;;;;;;;5084888;28;20293;-84
2022/10/02 03:28:50;;;;;;;21.50;4.27;;;;;;;;;;5066010;28;20734;-84
2022/10/02 03:31:19;;;;;;;17.50;3.90;;;;;;;;;;5069250;28;20719;-84
2022/10/02 03:33:47;;;;;;;18.43;4.27;;;;;;;;;;5058671;28;20243;-84
2022/10/02 03:36:16;;;;;;;23.80;4.40;;;;;;;;;;5075635;28;20234;-84
2022/10/02 03:38:44;;;;;;;19.53;4.03;;;;;;;;;;5082343;28;20207;-84
2022/10/02 03:41:12;;;;;;;16.67;3.93;;;;;;;;;;5075471;28;20727;-84
2022/10/02 03:43:39;;;;;;;17.10;4.10;;;;;;;;;;5074297;28;20760;-84
2022/10/02 03:46:07;;;;;;;22.10;5.07;;;;;;;;;;5073424;28;20230;-84
2022/10/02 03:48:34;;;;;;;22.83;4.53;;;;;;;;;;5077362;28;20573;-83
2022/10/02 03:51:02;;;;;;;20.47;4.20;;;;;;;;;;5086508;28;20279;-83
2022/10/02 03:53:32;;;;;;;22.33;4.47;;;;;;;;;;5079309;28;20635;-84
2022/10/02 03:56:03;;;;;;;19.93;4.33;;;;;;;;;;5088656;28;20194;-83
2022/10/02 03:58:31;;;;;;;22.97;4.87;;;;;;;;;;5079818;28;20225;-83
2022/10/02 04:01:02;;;;;;;21.30;4.67;;;;;;;;;;5077914;28;20255;-83
2022/10/02 04:03:31;;;;;;;22.87;5.00;;;;;;;;;;5079043;28;20279;-83
2022/10/02 04:06:01;;;;;;;24.70;5.03;;;;;;;;;;5081387;28;20281;-83
2022/10/02 04:08:32;;;;;;;21.60;5.00;;;;;;;;;;5076922;28;20299;-83
2022/10/02 04:11:04;;;;;;;24.13;4.80;;;;;;;;;;5091183;28;20236;-84
2022/10/02 04:13:34;;;;;;;20.10;4.67;;;;;;;;;;5085371;28;20590;-83
2022/10/02 04:16:07;;;;;;;18.80;5.00;;;;;;;;;;5080518;28;20190;-83
2022/10/02 04:18:36;;;;;;;19.37;5.13;;;;;;;;;;5087262;28;20257;-83
2022/10/02 04:21:06;;;;;;;23.70;4.83;;;;;;;;;;5077113;28;20208;-83
2022/10/02 04:23:37;;;;;;;21.53;4.53;;;;;;;;;;5078983;28;20225;-84
2022/10/02 04:26:07;;;;;;;16.73;4.60;;;;;;;;;;5079016;28;20841;-83
2022/10/02 04:28:37;;;;;;;15.70;4.73;;;;;;;;;;5081179;28;20223;-83
2022/10/02 04:31:09;;;;;;;20.57;4.80;;;;;;;;;;5079011;28;20233;-84
2022/10/02 04:33:36;;;;;;;19.33;4.60;;;;;;;;;;5068544;28;20301;-84
2022/10/02 04:36:05;;;;;;;18.17;4.03;;;;;;;;;;5088324;28;20285;-83
2022/10/02 04:38:40;;;;;;;20.10;4.13;;;;;;;;;;5075497;28;20199;-84
2022/10/02 04:41:13;;;;;;;23.07;4.70;;;;;;;;;;5062886;28;20227;-83
2022/10/02 04:43:45;;;;;;;20.57;4.47;;;;;;;;;;5066684;28;20283;-84
2022/10/02 04:46:18;;;;;;;22.00;4.20;;;;;;;;;;5080559;28;20214;-84
2022/10/02 04:49:08;;;;;;;12.53;3.90;;;;;;;;;;5091693;28;20689;-84
2022/10/02 04:51:43;;;;;;;17.03;3.90;;;;;;;;;;5076853;28;20202;-84
2022/10/02 04:54:25;;;;;;;13.97;4.27;;;;;;;;;;5074997;28;20305;-83
2022/10/02 04:56:59;;;;;;;16.67;4.27;;;;;;;;;;5079435;28;20282;-83
2022/10/02 04:59:32;;;;;;;16.37;4.03;;;;;;;;;;5065490;28;20682;-83
2022/10/02 05:02:06;;;;;;;14.67;3.60;;;;;;;;;;5057862;28;20278;-83
2022/10/02 05:04:41;;;;;;;13.43;4.00;;;;;;;;;;5061071;28;20962;-83
2022/10/02 05:07:20;;;;;;;12.13;3.33;;;;;;;;;;5074563;28;20252;-83
2022/10/02 05:09:54;;;;;;;12.57;3.00;;;;;;;;;;5081810;28;20234;-83
2022/10/02 05:12:33;;;;;;;13.03;3.40;;;;;;;;;;5076213;28;20265;-83
2022/10/02 05:15:14;;;;;;;12.77;2.90;;;;;;;;;;5073752;28;20203;-84
2022/10/02 05:17:46;;;;;;;11.73;3.20;;;;;;;;;;5052429;28;20231;-84
2022/10/02 05:20:23;;;;;;;11.07;3.37;;;;;;;;;;5063452;28;20231;-84
2022/10/02 05:22:55;;;;;;;11.73;2.78;;;;;;;;;;5072978;28;20218;-83
2022/10/02 05:25:31;;;;;;;11.97;2.80;;;;;;;;;;5075408;28;20231;-83
2022/10/02 05:28:09;;;;;;;9.93;2.73;;;;;;;;;;5084631;28;20235;-83
2022/10/02 05:30:40;;;;;;;8.57;2.77;;;;;;;;;;5083624;28;20277;-83
2022/10/02 05:33:12;;;;;;;11.03;2.40;;;;;;;;;;5072039;28;20310;-83
2022/10/02 05:35:46;;;;;;;9.80;2.53;;;;;;;;;;5071647;28;20690;-83
2022/10/02 05:38:19;;;;;;;9.33;2.97;;;;;;;;;;5064505;28;20206;-84
2022/10/02 05:40:53;;;;;;;8.47;2.67;;;;;;;;;;5078193;28;20225;-84
2022/10/02 05:43:26;;;;;;;10.43;2.40;;;;;;;;;;5092937;28;20623;-83
2022/10/02 05:45:56;;;;;;;10.73;2.57;;;;;;;;;;5085283;28;20230;-84
2022/10/02 05:48:24;;;;;;;10.53;2.20;;;;;;;;;;5078186;28;20240;-84
2022/10/02 05:50:54;;;;;;;9.77;2.70;;;;;;;;;;5083509;28;20227;-84
2022/10/02 05:53:26;;;;;;;7.50;1.97;;;;;;;;;;5066945;28;20250;-84
2022/10/02 05:55:55;;;;;;;6.53;2.30;;;;;;;;;;5080044;28;20222;-84
2022/10/02 05:58:28;;;;;;;8.60;2.50;;;;;;;;;;5074295;28;20199;-84
2022/10/02 06:00:59;;;;;;;9.98;2.42;;;;;;;;;;5089974;28;20218;-84
2022/10/02 06:03:30;;;;;;;5.80;2.00;;;;;;;;;;5085410;28;20230;-84
2022/10/02 06:05:59;;;;;;;9.63;2.33;;;;;;;;;;5074197;28;20195;-84
2022/10/02 06:08:31;;;;;;;8.03;2.33;;;;;;;;;;5081113;28;20250;-84
2022/10/02 06:11:01;;;;;;;6.53;2.50;;;;;;;;;;5086897;28;20313;-84
2022/10/02 06:13:34;;;;;;;8.33;2.40;;;;;;;;;;5074074;28;20302;-84
2022/10/02 06:16:05;;;;;;;11.93;2.53;;;;;;;;;;5077746;28;20252;-83
2022/10/02 06:18:34;;;;;;;7.90;2.20;;;;;;;;;;5074310;28;20640;-84
2022/10/02 06:21:03;;;;;;;9.63;2.57;;;;;;;;;;5063145;28;20330;-84
2022/10/02 06:23:35;;;;;;;10.20;2.30;;;;;;;;;;5084737;28;20198;-84
2022/10/02 06:26:04;;;;;;;9.87;2.53;;;;;;;;;;5078646;28;20226;-84
2022/10/02 06:28:36;;;;;;;9.90;2.50;;;;;;;;;;5084539;28;20279;-83
2022/10/02 06:31:05;;;;;;;9.20;2.63;;;;;;;;;;5079632;28;20195;-84
2022/10/02 06:33:33;;;;;;;9.60;2.60;;;;;;;;;;5089948;28;20308;-83
2022/10/02 06:36:09;;;;;;;7.40;2.17;;;;;;;;;;5088032;28;20198;-83
2022/10/02 06:38:43;;;;;;;11.47;2.53;;;;;;;;;;5081925;28;20198;-83
2022/10/02 06:41:13;;;;;;;9.27;2.90;;;;;;;;;;5080790;28;20255;-83
2022/10/02 06:44:01;;;;;;;10.10;2.57;;;;;;;;;;5074300;28;20223;-84
2022/10/02 06:46:31;;;;;;;9.97;2.53;;;;;;;;;;5076998;28;20297;-84
2022/10/02 06:49:01;;;;;;;10.17;2.53;;;;;;;;;;5080180;28;20198;-84
2022/10/02 06:51:34;;;;;;;10.50;3.00;;;;;;;;;;5085246;28;20230;-84
2022/10/02 06:54:11;;;;;;;7.63;2.30;;;;;;;;;;5084301;28;20301;-85
2022/10/02 06:56:54;;;;;;;7.25;2.20;;;;;;;;;;5074383;28;20211;-85
2022/10/02 06:59:30;;;;;;;8.87;2.00;;;;;;;;;;5075214;28;20203;-85
2022/10/02 07:02:02;;;;;;;6.30;2.07;;;;;;;;;;5079557;28;20209;-86
2022/10/02 07:04:34;;;;;;;6.43;2.40;;;;;;;;;;5068098;28;20314;-85
2022/10/02 07:07:11;;;;;;;5.53;2.00;;;;;;;;;;5070605;28;20214;-84
2022/10/02 07:09:53;;;;;;;6.60;2.47;;;;;;;;;;5078425;28;20198;-84
2022/10/02 07:12:27;;;;;;;6.18;2.00;;;;;;;;;;5092459;28;20265;-86
2022/10/02 07:15:16;;;;;;;6.93;1.92;;;;;;;;;;5090416;28;20664;-86
2022/10/02 07:17:51;;;;;;;8.35;2.08;;;;;;;;;;5013710;28;20292;-86
2022/10/02 07:20:23;;;;;;;7.43;2.40;;;;;;;;;;5024963;28;20650;-85
2022/10/02 07:22:58;;;;;;;11.60;2.33;;;;;;;;;;5016632;28;20284;-85
2022/10/02 07:25:42;;;;;;;10.50;2.22;;;;;;;;;;5029949;28;20215;-85
2022/10/02 07:28:14;;;;;;;6.72;2.08;;;;;;;;;;5021145;28;20228;-84
2022/10/02 07:30:45;;;;;;;10.55;2.53;;;;;;;;;;5021019;28;20284;-84
2022/10/02 07:33:19;;;;;;;8.00;2.08;;;;;;;;;;5014130;28;20243;-85
2022/10/02 07:35:51;;;;;;;7.65;2.20;;;;;;;;;;5027502;28;20223;-85
2022/10/02 07:38:41;;;;;;;8.68;2.28;;;;;;;;;;5021528;28;20213;-84
2022/10/02 07:41:18;;;;;;;7.30;2.20;;;;;;;;;;5012870;28;20205;-86
2022/10/02 07:43:48;;;;;;;8.15;2.30;;;;;;;;;;5013972;28;20654;-85
2022/10/02 07:46:18;;;;;;;7.03;1.95;;;;;;;;;;5019125;28;20255;-84
2022/10/02 07:48:54;;;;;;;8.07;1.80;;;;;;;;;;5022823;28;20225;-84
2022/10/02 07:54:21;;;;;;;8.50;2.40;;;;;;;;;;5025095;28;20230;-87
2022/10/02 07:56:49;;;;;;;5.97;2.08;;;;;;;;;;5065119;28;20280;-87
2022/10/02 07:59:17;;;;;;;7.13;1.98;;;;;;;;;;5089765;28;20701;-87
2022/10/02 08:01:45;;;;;;;7.20;2.20;;;;;;;;;;5089505;28;20753;-87
2022/10/02 08:04:17;;;;;;;10.55;2.47;;;;;;;;;;5073304;28;20235;-87
2022/10/02 08:06:46;;;;;;;5.20;1.90;;;;;;;;;;5076149;28;20277;-87
2022/10/02 08:09:15;;;;;;;7.85;2.20;;;;;;;;;;5090653;28;20264;-86
2022/10/02 08:11:44;;;;;;;7.82;1.88;;;;;;;;;;5084432;28;20222;-86
2022/10/02 08:14:14;;;;;;;8.30;2.00;;;;;;;;;;5079046;28;20222;-84
2022/10/02 08:16:45;;;;;;;8.48;2.03;;;;;;;;;;5089830;28;20206;-85
2022/10/02 08:19:15;;;;;;;7.38;2.00;;;;;;;;;;5094546;28;20248;-85
2022/10/02 08:21:46;;;;;;;7.95;2.50;;;;;;;;;;5091572;28;20199;-84
2022/10/02 08:24:15;;;;;;;8.85;1.77;;;;;;;;;;5088929;28;20251;-84
2022/10/02 08:26:45;;;;;;;7.05;2.17;;;;;;;;;;5088228;28;20223;-85
2022/10/02 08:29:17;;;;;;;7.53;2.20;;;;;;;;;;5070434;28;20226;-85
2022/10/02 08:31:44;;;;;;;4.63;1.63;;;;;;;;;;5093331;28;20225;-85
2022/10/02 08:34:17;;;;;;;6.55;1.70;;;;;;;;;;5093527;28;20671;-85
2022/10/02 08:36:51;;;;;;;8.25;2.10;;;;;;;;;;5085559;28;20282;-85
2022/10/02 08:39:25;;;;;;;7.80;1.90;;;;;;;;;;5078673;28;20230;-84
2022/10/02 08:42:13;;;;;;;7.10;2.20;;;;;;;;;;5073024;28;20278;-85
2022/10/02 08:44:53;;;;;;;6.30;1.80;;;;;;;;;;5080512;28;20285;-84
2022/10/02 08:47:35;;;;;;;5.65;1.92;;;;;;;;;;5072490;28;20625;-84
2022/10/02 08:50:34;;;;;;;9.48;1.98;;;;;;;;;;5077291;28;20230;-85
2022/10/02 08:53:16;;;;;;;7.47;1.92;;;;;;;;;;5093005;28;20202;-84
2022/10/02 08:56:03;;;;;;;8.73;2.05;;;;;;;;;;5084857;28;20226;-84
2022/10/02 08:58:42;;;;;;;8.07;1.77;;;;;;;;;;5071067;28;20294;-84
2022/10/02 09:01:23;;;;;;;6.25;1.65;;;;;;;;;;5065275;28;20674;-85
2022/10/02 09:04:09;;;;;;;6.22;2.00;;;;;;;;;;5074583;28;20237;-85
2022/10/02 09:06:54;;;;;;;7.38;1.88;;;;;;;;;;5039594;28;20199;-85
2022/10/02 09:09:47;;;;;;;7.70;1.80;;;;;;;;;;5050051;28;20235;-85
2022/10/02 09:12:32;;;;;;;8.15;2.10;;;;;;;;;;5049473;28;20747;-85
2022/10/02 09:15:01;;;;;;;5.90;1.60;;;;;;;;;;5049803;28;20251;-86
2022/10/02 09:17:44;;;;;;;6.85;2.00;;;;;;;;;;5049627;28;20192;-86
2022/10/02 09:20:17;;;;;;;6.47;1.92;;;;;;;;;;5050006;28;20286;-85
2022/10/02 09:22:59;;;;;;;12.85;2.20;;;;;;;;;;5051006;28;20223;-86
2022/10/02 09:25:30;;;;;;;9.98;2.25;;;;;;;;;;5050169;28;20226;-86
2022/10/02 09:28:22;;;;;;;8.63;1.92;;;;;;;;;;5048084;28;20274;-86
2022/10/02 09:31:05;;;;;;;7.82;2.13;;;;;;;;;;5011114;28;20228;-87
2022/10/02 09:33:43;;;;;;;10.70;2.10;;;;;;;;;;5036427;28;20200;-86
2022/10/02 09:36:29;;;;;;;12.20;2.47;;;;;;;;;;5048728;28;20278;-86
2022/10/02 09:39:24;;;;;;;6.95;1.98;;;;;;;;;;5040581;28;20633;-88
2022/10/02 09:42:24;;;;;;;8.98;2.03;;;;;;;;;;5042697;28;20671;-87
2022/10/02 09:45:16;;;;;;;6.20;1.88;;;;;;;;;;5074383;28;20203;-89
2022/10/02 09:48:03;;;;;;;7.53;2.30;;;;;;;;;;5011437;28;20208;-89
2022/10/02 09:50:58;;;;;;;9.27;1.90;;;;;;;;;;5014729;28;20209;-90
2022/10/02 09:53:38;;;;;;;7.80;2.40;;;;;;;;;;5024673;28;20661;-90
2022/10/02 09:56:17;;;;;;;10.70;2.05;;;;;;;;;;5023352;28;20188;-89
2022/10/02 09:59:06;;;;;;;9.02;2.40;;;;;;;;;;5013013;28;20282;-89
2022/10/02 10:01:51;;;;;;;9.63;2.08;;;;;;;;;;4983075;28;20198;-89
2022/10/02 10:04:45;;;;;;;10.15;2.30;;;;;;;;;;4911677;29;20215;-88
2022/10/02 10:07:22;;;;;;;8.82;2.40;;;;;;;;;;4894767;29;20765;-89
2022/10/02 10:10:11;;;;;;;11.38;2.92;;;;;;;;;;4899528;29;20236;-89
2022/10/02 10:12:58;;;;;;;8.60;2.38;;;;;;;;;;4900970;29;20229;-89
2022/10/02 10:15:43;;;;;;;10.20;2.50;;;;;;;;;;4901595;29;20235;-88
2022/10/02 10:18:25;;;;;;;10.00;2.10;;;;;;;;;;4894005;29;20205;-89
2022/10/02 10:21:11;;;;;;;7.07;1.77;;;;;;;;;;4880629;29;20233;-88
2022/10/02 10:23:56;;;;;;;4.38;1.38;;;;;;;;;;4897771;29;20401;-89
2022/10/02 10:26:42;;;;;;;5.72;1.70;;;;;;;;;;4921169;29;20211;-89
2022/10/02 10:29:23;;;;;;;5.93;1.50;;;;;;;;;;4927873;29;20231;-89
2022/10/02 10:32:17;;;;;;;7.93;1.88;;;;;;;;;;4929469;29;20259;-89
2022/10/02 10:34:59;;;;;;;6.38;1.48;;;;;;;;;;4921171;29;20348;-89
2022/10/02 10:40:28;;;;;;;10.52;1.73;;;;;;;;;;4918932;29;20203;-89
2022/10/02 10:43:09;;;;;;;6.35;1.40;;;;;;;;;;4958491;28;20257;-89
2022/10/02 10:45:43;;;;;;;6.13;1.60;;;;;;;;;;4955363;28;20210;-89
2022/10/02 10:48:19;;;;;;;7.35;1.73;;;;;;;;;;4963931;28;20609;-89
2022/10/02 10:50:51;;;;;;;4.60;1.60;;;;;;;;;;4958459;28;20559;-89
2022/10/02 10:53:28;;;;;;;4.43;1.30;;;;;;;;;;4971214;28;20222;-88
2022/10/02 10:56:18;;;;;;;5.50;1.40;;;;;;;;;;5005666;28;20248;-88
2022/10/02 10:58:52;;;;;;;3.88;1.30;;;;;;;;;;4963448;28;20618;-89
2022/10/02 11:01:22;;;;;;;5.78;1.13;;;;;;;;;;4964397;28;20210;-88
2022/10/02 11:03:59;;;;;;;5.70;1.30;;;;;;;;;;4964217;28;20262;-89
2022/10/02 11:06:38;;;;;;;4.05;1.50;;;;;;;;;;4963914;28;20258;-89
2022/10/02 11:09:26;;;;;;;4.97;1.30;;;;;;;;;;4959654;28;20204;-89
2022/10/02 11:12:02;;;;;;;4.13;1.38;;;;;;;;;;4962652;28;20239;-89
2022/10/02 11:14:36;;;;;;;5.72;1.30;;;;;;;;;;4985405;28;20223;-88
2022/10/02 11:17:17;;;;;;;4.43;1.17;;;;;;;;;;5024578;28;20188;-88
2022/10/02 11:20:03;;;;;;;4.93;1.58;;;;;;;;;;5031873;28;20266;-89
2022/10/02 11:22:39;;;;;;;6.20;1.90;;;;;;;;;;5014963;28;20219;-89
2022/10/02 11:25:14;;;;;;;6.93;1.50;;;;;;;;;;5021186;28;20193;-89
2022/10/02 11:27:52;;;;;;;4.22;1.08;;;;;;;;;;5031825;28;20583;-89
2022/10/02 11:30:23;;;;;;;4.10;1.10;;;;;;;;;;5032778;28;20662;-89
2022/10/02 11:32:58;;;;;;;4.38;1.10;;;;;;;;;;5028248;28;20208;-89
2022/10/02 11:35:32;;;;;;;5.55;1.40;;;;;;;;;;5043936;28;20297;-89
2022/10/02 11:38:17;;;;;;;5.45;1.45;;;;;;;;;;5082265;28;20252;-89
2022/10/02 11:40:50;;;;;;;4.60;1.20;;;;;;;;;;5030350;28;20695;-89
2022/10/02 11:43:39;;;;;;;4.45;1.32;;;;;;;;;;4900885;28;10001239;-89
2022/10/02 11:46:26;;;;;;;2.97;1.30;;;;;;;;;;5013508;28;20466;-90
2022/10/02 11:49:09;;;;;;;4.75;1.40;;;;;;;;;;5012470;28;20216;-89
2022/10/02 11:51:51;;;;;;;6.13;1.30;;;;;;;;;;5015884;28;20204;-88
2022/10/02 11:54:31;;;;;;;4.35;1.17;;;;;;;;;;5020494;28;20655;-89
2022/10/02 11:57:08;;;;;;;4.45;1.17;;;;;;;;;;5026452;28;20279;-89
2022/10/02 11:59:43;;;;;;;4.72;1.30;;;;;;;;;;5021074;28;20239;-89
2022/10/02 12:02:14;;;;;;;6.63;1.52;;;;;;;;;;5020067;28;20773;-88
2022/10/02 12:04:47;;;;;;;6.85;1.63;;;;;;;;;;5017852;28;20200;-89
2022/10/02 12:07:25;;;;;;;5.10;1.42;;;;;;;;;;5022677;28;20232;-89
2022/10/02 12:10:00;;;;;;;6.22;1.45;;;;;;;;;;5023374;28;20208;-89
2022/10/02 12:12:35;;;;;;;5.38;1.30;;;;;;;;;;5015519;28;20732;-89
2022/10/02 12:15:14;;;;;;;5.00;1.48;;;;;;;;;;5015374;28;20277;-88
2022/10/02 12:17:53;;;;;;;5.72;1.50;;;;;;;;;;5044407;28;20209;-87
2022/10/02 12:28:54;;;;;;;6.30;1.60;;;;;;;;;;5067710;28;20202;-89
2022/10/02 12:31:24;;;;;;;5.38;1.40;;;;;;;;;;5072954;28;20282;-89
2022/10/02 12:34:00;;;;;;;5.63;1.48;;;;;;;;;;5093253;28;20281;-89
2022/10/02 12:36:34;;;;;;;7.10;1.95;;;;;;;;;;5088161;28;20217;-88
2022/10/02 12:39:07;;;;;;;6.53;1.77;;;;;;;;;;5080654;28;20189;-89
2022/10/02 12:41:52;;;;;;;9.70;1.75;;;;;;;;;;5082216;28;20195;-89
2022/10/02 12:44:38;;;;;;;6.85;2.20;;;;;;;;;;5073586;28;20257;-89
2022/10/02 12:47:21;;;;;;;7.43;2.38;;;;;;;;;;5068015;28;20245;-89
2022/10/02 12:49:55;;;;;;;5.22;2.10;;;;;;;;;;5089489;28;20211;-89
2022/10/02 12:52:38;;;;;;;7.60;1.65;;;;;;;;;;5079885;28;20206;-89
2022/10/02 12:55:32;;;;;;;7.35;2.15;;;;;;;;;;5080593;28;20290;-89
2022/10/02 12:58:09;;;;;;;6.43;1.85;;;;;;;;;;5079719;28;20255;-88
2022/10/02 13:00:49;;;;;;;8.27;2.08;;;;;;;;;;5084756;28;20202;-88
2022/10/02 13:03:40;;;;;;;8.80;2.08;;;;;;;;;;5066078;28;20688;-88
2022/10/02 13:06:22;;;;;;;6.25;1.92;;;;;;;;;;5065812;28;20192;-88
2022/10/02 13:08:54;;;;;;;6.28;1.73;;;;;;;;;;5006562;28;20322;-88
2022/10/02 13:11:29;;;;;;;7.93;1.75;;;;;;;;;;5021622;28;20970;-88
2022/10/02 13:14:09;;;;;;;6.63;1.85;;;;;;;;;;5016478;28;20204;-88
2022/10/02 13:16:54;;;;;;;7.45;1.88;;;;;;;;;;5011095;28;20638;-88
2022/10/02 13:19:29;;;;;;;7.75;1.80;;;;;;;;;;5013836;28;20197;-88
2022/10/02 13:22:02;;;;;;;7.75;2.22;;;;;;;;;;5024043;28;20204;-88
2022/10/02 13:24:38;;;;;;;5.65;1.95;;;;;;;;;;5013772;28;20228;-88
2022/10/02 13:27:12;;;;;;;6.55;2.00;;;;;;;;;;5021638;28;20196;-88
2022/10/02 13:29:50;;;;;;;5.95;1.63;;;;;;;;;;5022083;28;20322;-89
2022/10/02 13:32:32;;;;;;;7.03;1.90;;;;;;;;;;5013872;28;20238;-89
2022/10/02 13:35:15;;;;;;;8.43;1.88;;;;;;;;;;5022204;28;20228;-89
2022/10/02 13:37:47;;;;;;;4.47;1.70;;;;;;;;;;5022235;28;20204;-89
2022/10/02 13:40:19;;;;;;;7.63;1.70;;;;;;;;;;5014426;28;20204;-88
2022/10/02 13:43:08;;;;;;;8.23;1.88;;;;;;;;;;5013623;28;20655;-89
2022/10/02 13:45:39;;;;;;;8.10;1.85;;;;;;;;;;5028757;28;20199;-88
2022/10/02 13:48:13;;;;;;;6.88;1.80;;;;;;;;;;5066423;28;20207;-89
2022/10/02 13:50:47;;;;;;;4.93;1.52;;;;;;;;;;5073798;28;20190;-89
2022/10/02 13:53:32;;;;;;;5.15;1.30;;;;;;;;;;5080498;28;20574;-89
2022/10/02 13:56:05;;;;;;;8.43;1.70;;;;;;;;;;5085879;28;20215;-89
2022/10/02 13:58:43;;;;;;;5.30;1.50;;;;;;;;;;5073479;28;20206;-88
2022/10/02 14:01:18;;;;;;;5.45;1.50;;;;;;;;;;5084858;28;20937;-89
2022/10/02 14:03:57;;;;;;;7.45;1.88;;;;;;;;;;5079592;28;20198;-89
2022/10/02 14:06:25;;;;;;;5.55;1.88;;;;;;;;;;5073705;28;20252;-89
2022/10/02 14:09:01;;;;;;;7.95;1.75;;;;;;;;;;5080593;28;20222;-89
2022/10/02 14:11:37;;;;;;;8.52;1.70;;;;;;;;;;5078100;28;20246;-89
2022/10/02 14:14:11;;;;;;;3.65;1.52;;;;;;;;;;5073900;28;20198;-88
2022/10/02 14:16:50;;;;;;;5.20;1.80;;;;;;;;;;5090437;28;20245;-89
2022/10/02 14:19:32;;;;;;;7.57;1.83;;;;;;;;;;5070286;28;20753;-88
2022/10/02 14:22:06;;;;;;;3.65;1.60;;;;;;;;;;5074526;28;20203;-88
2022/10/02 14:24:59;;;;;;;5.53;1.80;;;;;;;;;;5074631;28;20203;-87
2022/10/02 14:27:42;;;;;;;5.78;1.85;;;;;;;;;;5074816;28;20230;-88
2022/10/02 14:30:13;;;;;;;7.25;1.40;;;;;;;;;;5078399;28;20742;-87
2022/10/02 14:32:49;;;;;;;5.95;1.60;;;;;;;;;;5071385;28;20271;-87
2022/10/02 14:35:34;;;;;;;4.38;1.80;;;;;;;;;;5075370;28;20782;-88
2022/10/02 14:38:19;;;;;;;6.65;1.65;;;;;;;;;;5069051;28;20318;-88
2022/10/02 14:40:51;;;;;;;6.10;1.52;;;;;;;;;;5067096;28;20264;-88
2022/10/02 14:43:32;;;;;;;7.20;1.80;;;;;;;;;;5071050;28;20207;-88
2022/10/02 14:46:03;;;;;;;7.05;1.98;;;;;;;;;;5062432;28;20257;-88
2022/10/02 14:48:39;;;;;;;8.82;2.20;;;;;;;;;;5080341;28;20206;-90
2022/10/02 14:51:13;;;;;;;8.25;2.15;;;;;;;;;;5078052;28;20249;-90
2022/10/02 14:53:49;;;;;;;8.00;2.08;;;;;;;;;;5075222;28;20312;-91
2022/10/02 14:56:33;;;;;;;8.57;2.22;;;;;;;;;;5082080;28;20710;-87
2022/10/02 14:59:09;;;;;;;10.70;2.67;;;;;;;;;;5088905;28;20194;-89
2022/10/02 15:01:41;;;;;;;11.00;2.28;;;;;;;;;;5084681;28;20274;-91
2022/10/02 15:04:32;;;;;;;6.00;1.92;;;;;;;;;;5073390;28;20667;-89
2022/10/02 15:07:08;;;;;;;6.80;2.20;;;;;;;;;;5067997;28;20218;-87
2022/10/02 15:09:51;;;;;;;10.50;2.42;;;;;;;;;;5085271;28;20199;-89
2022/10/02 15:12:20;;;;;;;8.57;2.38;;;;;;;;;;5075576;28;20234;-89
2022/10/02 15:14:55;;;;;;;9.70;3.40;;;;;;;;;;5077577;28;20265;-88
2022/10/02 15:20:41;;;;;;;7.35;2.47;;;;;;;;;;5020990;28;20224;-88
2022/10/02 15:23:12;;;;;;;13.38;2.70;;;;;;;;;;5025398;28;20215;-87
2022/10/02 15:25:47;;;;;;;8.25;2.20;;;;;;;;;;5019072;28;20205;-86
2022/10/02 15:28:19;;;;;;;6.78;2.10;;;;;;;;;;5007617;28;20212;-85
2022/10/02 15:30:51;;;;;;;7.40;1.90;;;;;;;;;;5022845;28;20211;-87
2022/10/02 15:33:22;;;;;;;8.73;2.30;;;;;;;;;;5026599;28;20487;-84
2022/10/02 15:35:55;;;;;;;7.38;2.50;;;;;;;;;;5021780;28;20322;-84
2022/10/02 15:38:44;;;;;;;6.13;1.95;;;;;;;;;;5019868;28;20303;-84
2022/10/02 15:41:20;;;;;;;7.45;1.95;;;;;;;;;;5020952;28;20243;-82
2022/10/02 15:43:54;;;;;;;8.23;2.17;;;;;;;;;;5023562;28;20228;-83